Time;durP1;ratioP1;P1;durP2;ratioP2;P2;SDS_P1;SDS_P2;PMS_P1;PMS_P2;Temp;Humidity;BMP_temperature;BMP_pressure;BME280_temperature;BME280_humidity;BME280_pressure;Samples;Min_cycle;Max_cycle;Signal;HPM_P1;HPM_P2
2021/07/03 05:01:05;;;;;;;2.60;2.40;;;;;;;17.75;78.20;94599.03;5736874;23;20062;-75
2021/07/03 05:03:30;;;;;;;2.20;2.08;;;;;;;17.56;79.57;94600.13;4912570;29;20416;-75
2021/07/03 05:05:56;;;;;;;2.85;2.30;;;;;;;17.53;78.32;94599.72;4927565;29;20032;-75
2021/07/03 05:08:21;;;;;;;2.40;2.20;;;;;;;17.89;75.79;94589.16;4926334;29;20034;-75
2021/07/03 05:10:46;;;;;;;3.17;2.40;;;;;;;18.15;74.96;94594.00;4924688;29;20039;-75
2021/07/03 05:13:12;;;;;;;4.53;2.65;;;;;;;17.99;76.63;94591.22;4918011;29;20034;-75
2021/07/03 05:15:37;;;;;;;4.50;2.42;;;;;;;18.42;72.82;94584.69;4917588;29;20425;-78
2021/07/03 05:18:03;;;;;;;4.35;2.08;;;;;;;22.15;62.39;94585.66;4925968;29;20039;-76
2021/07/03 05:20:29;;;;;;;3.55;2.17;;;;;;;26.35;49.75;94588.41;4919220;29;20035;-76
2021/07/03 05:22:54;;;;;;;3.85;2.10;;;;;;;24.66;52.46;94585.06;4913028;29;20039;-76
2021/07/03 05:25:20;;;;;;;6.57;2.20;;;;;;;20.85;62.12;94583.91;4914453;29;20033;-75
2021/07/03 05:27:45;;;;;;;6.18;2.40;;;;;;;19.70;68.37;94584.44;4922859;29;20548;-75
2021/07/03 05:30:11;;;;;;;3.17;2.65;;;;;;;19.50;69.73;94585.91;4909849;29;20028;-75
2021/07/03 05:32:37;;;;;;;3.28;2.05;;;;;;;26.16;50.28;94579.50;4910535;29;20035;-76
2021/07/03 05:35:02;;;;;;;2.03;1.85;;;;;;;21.31;62.76;94580.84;4909509;29;20373;-76
2021/07/03 05:37:28;;;;;;;2.80;1.90;;;;;;;23.14;58.79;94580.53;4910398;29;20024;-75
2021/07/03 05:39:53;;;;;;;4.07;1.63;;;;;;;28.14;47.21;94571.00;4910880;29;20433;-78
2021/07/03 05:42:19;;;;;;;1.70;1.60;;;;;;;29.65;43.49;94579.00;4910592;29;20122;-80
2021/07/03 05:44:44;;;;;;;2.58;1.90;;;;;;;24.37;54.35;94574.22;4910565;29;20095;-81
2021/07/03 05:47:10;;;;;;;2.42;1.80;;;;;;;28.30;45.75;94563.56;4908508;29;20031;-77
2021/07/03 05:49:35;;;;;;;1.92;1.83;;;;;;;28.36;45.08;94575.72;4910050;29;20032;-75
2021/07/03 05:52:01;;;;;;;2.97;1.90;;;;;;;22.53;60.61;94575.69;4908483;29;20039;-81
2021/07/03 05:54:28;;;;;;;3.05;1.90;;;;;;;21.48;63.01;94570.22;4909034;29;20123;-79
2021/07/03 05:56:54;;;;;;;2.53;2.30;;;;;;;20.92;63.92;94568.72;4908844;29;20076;-76
2021/07/03 05:59:19;;;;;;;5.43;2.60;;;;;;;20.80;65.23;94575.94;4909834;29;20040;-76
2021/07/03 06:01:44;;;;;;;3.95;2.40;;;;;;;20.63;64.03;94575.19;4918112;29;20055;-78
2021/07/03 06:04:10;;;;;;;3.97;2.50;;;;;;;20.73;66.86;94559.53;4920268;29;20501;-75
2021/07/03 06:06:35;;;;;;;3.58;2.67;;;;;;;20.92;65.90;94572.16;4924480;29;20031;-79
2021/07/03 06:09:03;;;;;;;2.67;2.45;;;;;;;20.78;64.48;94567.47;4903347;29;20514;-77
2021/07/03 06:11:29;;;;;;;2.67;2.38;;;;;;;21.06;64.45;94569.97;4921970;29;20028;-78
2021/07/03 06:13:57;;;;;;;7.50;3.10;;;;;;;21.50;63.60;94571.56;4927171;29;20039;-79
2021/07/03 06:16:23;;;;;;;4.15;2.85;;;;;;;24.27;53.81;94568.97;4897678;29;20031;-79
2021/07/03 06:18:48;;;;;;;4.82;2.60;;;;;;;26.32;49.39;94550.97;4896758;29;20034;-80
2021/07/03 06:21:13;;;;;;;4.20;2.25;;;;;;;26.47;48.24;94569.44;4911800;29;20028;-81
2021/07/03 06:23:39;;;;;;;5.18;2.60;;;;;;;29.09;41.69;94565.16;4929574;29;20032;-79
2021/07/03 06:26:05;;;;;;;2.25;2.15;;;;;;;30.00;39.48;94563.31;4911023;29;20032;-82
2021/07/03 06:28:31;;;;;;;4.38;2.00;;;;;;;30.24;38.72;94569.97;4897023;29;20078;-78
2021/07/03 06:30:57;;;;;;;2.67;2.15;;;;;;;30.79;38.21;94561.72;4927919;29;20030;-77
2021/07/03 06:33:22;;;;;;;2.75;2.10;;;;;;;27.87;44.20;94557.53;4912641;29;20027;-76
2021/07/03 06:35:48;;;;;;;5.00;1.95;;;;;;;31.66;36.43;94567.13;4928076;29;20610;-76
2021/07/03 06:38:14;;;;;;;2.20;2.00;;;;;;;31.07;37.81;94559.66;4929050;29;20042;-81
2021/07/03 06:40:39;;;;;;;6.03;2.17;;;;;;;30.64;37.92;94567.44;4897042;29;20032;-78
2021/07/03 06:43:04;;;;;;;2.88;1.80;;;;;;;28.93;40.25;94577.19;4919918;29;20048;-80
2021/07/03 06:45:30;;;;;;;2.97;1.55;;;;;;;26.99;43.70;94547.44;4911947;29;20098;-81
2021/07/03 06:47:55;;;;;;;3.53;1.83;;;;;;;26.30;45.21;94559.19;4907048;29;20021;-76
2021/07/03 06:50:21;;;;;;;2.03;1.83;;;;;;;26.41;45.20;94574.00;4892850;29;20056;-81
2021/07/03 06:52:46;;;;;;;3.60;1.77;;;;;;;26.92;44.24;94568.22;4894824;29;20031;-77
2021/07/03 06:55:12;;;;;;;2.78;1.83;;;;;;;25.61;47.16;94570.00;4907859;29;20548;-77
2021/07/03 06:57:37;;;;;;;7.32;2.00;;;;;;;27.12;44.62;94568.03;4892095;29;20035;-76
2021/07/03 07:00:04;;;;;;;2.60;2.00;;;;;;;31.75;35.47;94569.84;4907139;29;20032;-79
2021/07/03 07:02:30;;;;;;;6.85;1.80;;;;;;;31.78;35.26;94575.38;4893275;29;20066;-77
2021/07/03 07:04:55;;;;;;;6.53;2.13;;;;;;;32.06;35.02;94564.38;4909575;29;20028;-85
2021/07/03 07:07:21;;;;;;;2.03;1.67;;;;;;;27.99;40.60;94563.22;4906774;29;20032;-77
2021/07/03 07:09:46;;;;;;;7.75;1.80;;;;;;;23.79;50.53;94566.78;4910114;29;20032;-79
2021/07/03 07:12:12;;;;;;;1.50;1.40;;;;;;;22.66;50.03;94544.63;4929054;29;20417;-85
2021/07/03 07:14:37;;;;;;;1.70;1.52;;;;;;;21.87;53.06;94560.31;4917005;29;20060;-76
2021/07/03 07:17:03;;;;;;;1.67;1.52;;;;;;;22.03;54.01;94564.72;4897256;29;20413;-82
2021/07/03 07:19:29;;;;;;;3.85;1.67;;;;;;;22.33;53.19;94566.81;4909598;29;20024;-75
2021/07/03 07:21:54;;;;;;;5.45;1.90;;;;;;;22.13;53.98;94569.28;4915457;29;20472;-77
2021/07/03 07:24:20;;;;;;;2.60;1.73;;;;;;;23.71;50.67;94561.97;4916092;29;20117;-80
2021/07/03 07:26:46;;;;;;;2.67;1.48;;;;;;;23.66;50.04;94551.41;4927301;29;20055;-78
2021/07/03 07:29:11;;;;;;;2.38;1.73;;;;;;;23.20;51.52;94550.44;4894024;29;20028;-77
2021/07/03 07:31:37;;;;;;;2.90;1.65;;;;;;;22.92;51.47;94563.00;4912389;29;20039;-78
2021/07/03 07:34:02;;;;;;;1.58;1.48;;;;;;;22.76;53.07;94563.16;4881887;29;20063;-85
2021/07/03 07:36:28;;;;;;;4.57;2.10;;;;;;;23.14;53.77;94570.75;4930812;29;20063;-78
2021/07/03 07:38:53;;;;;;;3.35;1.70;;;;;;;24.54;51.10;94566.81;4930200;29;20070;-80
2021/07/03 07:41:19;;;;;;;9.20;1.92;;;;;;;23.72;50.61;94563.56;4914066;29;20111;-78
2021/07/03 07:43:44;;;;;;;4.97;1.55;;;;;;;24.17;50.16;94565.50;4912201;29;20039;-82
2021/07/03 07:46:12;;;;;;;7.38;1.80;;;;;;;24.53;50.10;94565.22;4898355;29;20024;-80
2021/07/03 07:48:37;;;;;;;1.95;1.83;;;;;;;25.45;48.84;94557.84;4929902;29;20038;-75
2021/07/03 07:51:03;;;;;;;4.38;1.40;;;;;;;25.28;49.04;94557.38;4930832;29;20409;-82
2021/07/03 07:53:29;;;;;;;3.17;1.83;;;;;;;25.49;47.17;94546.47;4897159;29;20818;-75
2021/07/03 07:55:55;;;;;;;2.75;1.50;;;;;;;25.46;47.91;94546.19;4912897;29;20019;-80
2021/07/03 07:58:21;;;;;;;2.58;1.42;;;;;;;26.56;45.41;94555.25;4897991;29;20394;-80
2021/07/03 08:00:47;;;;;;;5.68;1.70;;;;;;;26.32;48.50;94548.31;4896426;29;20082;-83
2021/07/03 08:03:12;;;;;;;4.28;2.03;;;;;;;26.28;47.05;94557.91;4930902;29;20024;-77
2021/07/03 08:05:38;;;;;;;2.55;1.65;;;;;;;26.35;48.61;94555.72;4928615;29;20027;-76
2021/07/03 08:08:06;;;;;;;4.55;1.85;;;;;;;25.08;50.38;94559.03;4913710;29;20031;-75
2021/07/03 08:10:33;;;;;;;6.03;2.05;;;;;;;24.55;50.56;94538.47;4912387;29;20559;-81
2021/07/03 08:12:59;;;;;;;5.03;1.80;;;;;;;24.59;50.85;94550.91;4897613;29;20036;-77
2021/07/03 08:15:25;;;;;;;8.27;2.00;;;;;;;25.64;47.86;94540.25;4912151;29;20162;-79
2021/07/03 08:17:50;;;;;;;5.43;1.73;;;;;;;24.43;50.91;94548.56;4912314;29;20122;-79
2021/07/03 08:20:18;;;;;;;11.63;2.20;;;;;;;23.93;52.62;94552.75;4930278;29;20032;-78
2021/07/03 08:22:45;;;;;;;1.77;1.67;;;;;;;23.45;54.02;94543.41;4928864;29;20024;-82
2021/07/03 08:25:10;;;;;;;2.55;2.13;;;;;;;24.17;51.37;94549.63;4912603;29;20542;-76
2021/07/03 08:27:36;;;;;;;4.05;2.08;;;;;;;23.92;52.22;94545.09;4928185;29;20027;-79
2021/07/03 08:30:02;;;;;;;3.58;2.10;;;;;;;24.67;51.74;94550.38;4912961;29;20565;-82
2021/07/03 08:32:28;;;;;;;5.82;2.20;;;;;;;24.89;49.12;94543.97;4929838;29;20083;-81
2021/07/03 08:34:53;;;;;;;3.65;1.92;;;;;;;24.79;50.22;94544.00;4911796;29;20036;-75
2021/07/03 08:37:19;;;;;;;4.15;2.47;;;;;;;24.47;50.91;94539.81;4928881;29;20094;-78
2021/07/03 08:39:44;;;;;;;8.00;1.98;;;;;;;24.56;50.79;94540.84;4928605;29;20039;-79
2021/07/03 08:42:10;;;;;;;2.75;1.77;;;;;;;24.54;51.39;94540.31;4930826;29;20024;-79
2021/07/03 08:44:35;;;;;;;2.90;1.70;;;;;;;25.08;52.19;94542.34;4910476;29;20098;-84
2021/07/03 08:47:01;;;;;;;6.10;2.25;;;;;;;25.15;49.90;94548.16;4889289;29;20039;-77
2021/07/03 08:49:27;;;;;;;2.40;2.03;;;;;;;25.33;52.33;94541.47;4905144;29;20448;-76
2021/07/03 08:51:54;;;;;;;3.28;1.67;;;;;;;25.07;50.02;94544.22;4907254;29;20023;-77
2021/07/03 08:54:19;;;;;;;3.53;1.88;;;;;;;25.25;48.45;94552.63;4928334;29;20489;-78
2021/07/03 08:56:45;;;;;;;3.75;2.17;;;;;;;24.56;50.42;94556.75;4928526;29;20039;-79
2021/07/03 08:59:30;;;;;;;1.70;1.60;;;;;;;24.57;50.09;94550.38;4929265;29;20560;-77
2021/07/03 09:01:57;;;;;;;4.07;2.17;;;;;;;24.54;52.75;94558.06;4928005;29;20048;-79
2021/07/03 09:04:39;;;;;;;3.67;1.80;;;;;;;24.78;53.38;94553.00;4928681;29;20032;-81
2021/07/03 09:07:14;;;;;;;3.72;1.92;;;;;;;24.32;53.28;94550.41;4911951;29;20027;-77
2021/07/03 09:09:39;;;;;;;4.05;2.53;;;;;;;24.91;51.73;94552.47;4911249;29;20374;-76
2021/07/03 09:12:05;;;;;;;2.42;2.03;;;;;;;24.97;50.81;94556.69;4929491;29;20034;-80
2021/07/03 09:14:31;;;;;;;2.20;2.00;;;;;;;24.58;50.86;94552.00;4927068;29;20114;-80
2021/07/03 09:16:57;;;;;;;6.88;2.50;;;;;;;24.23;52.91;94537.97;4929547;29;20498;-77
2021/07/03 09:19:30;;;;;;;10.55;2.60;;;;;;;24.59;52.41;94535.00;4892571;29;20050;-76
2021/07/03 09:21:56;;;;;;;3.88;2.60;;;;;;;24.45;51.59;94547.22;4894762;29;20446;-79
2021/07/03 09:24:21;;;;;;;3.83;2.60;;;;;;;24.01;52.67;94541.66;4910692;29;20019;-79
2021/07/03 09:26:57;;;;;;;3.45;3.20;;;;;;;23.82;54.07;94532.66;4928266;29;20434;-77
2021/07/03 09:29:23;;;;;;;2.80;2.60;;;;;;;23.29;54.85;94539.09;4929133;29;20497;-83
2021/07/03 09:31:48;;;;;;;4.80;2.67;;;;;;;23.26;54.62;94541.47;4910319;29;20063;-82
2021/07/03 09:34:14;;;;;;;2.88;2.67;;;;;;;23.08;55.46;94540.88;4927332;29;20032;-78
2021/07/03 09:36:40;;;;;;;2.85;2.60;;;;;;;23.32;55.88;94532.50;4926904;29;20103;-77
2021/07/03 09:39:05;;;;;;;4.30;3.00;;;;;;;23.10;55.50;94530.84;4911127;29;20163;-76
2021/07/03 09:41:32;;;;;;;3.33;3.13;;;;;;;23.44;54.03;94528.59;4927927;29;20430;-75
2021/07/03 09:43:59;;;;;;;3.80;2.50;;;;;;;23.63;54.06;94520.19;4910187;29;20119;-76
2021/07/03 09:46:32;;;;;;;3.10;2.88;;;;;;;24.36;52.09;94517.06;4911478;29;20509;-79
2021/07/03 09:49:11;;;;;;;2.83;2.70;;;;;;;24.59;52.88;94531.59;4895357;29;20031;-77
2021/07/03 09:51:37;;;;;;;2.97;2.78;;;;;;;24.81;53.58;94525.97;4911340;29;20524;-76
2021/07/03 09:54:04;;;;;;;3.10;2.90;;;;;;;24.34;52.63;94529.75;4927089;29;20542;-75
2021/07/03 09:56:29;;;;;;;2.67;2.47;;;;;;;24.62;52.99;94533.69;4928170;29;20020;-79
2021/07/03 09:58:55;;;;;;;6.30;2.83;;;;;;;25.09;52.82;94535.97;4910543;29;20428;-76
2021/07/03 10:01:20;;;;;;;4.88;3.75;;;;;;;24.57;52.54;94521.25;4927297;29;20512;-75
2021/07/03 10:03:46;;;;;;;3.50;3.30;;;;;;;25.33;52.84;94529.00;4927746;29;20466;-75
2021/07/03 10:06:36;;;;;;;3.75;3.45;;;;;;;24.47;53.40;94523.91;4926910;29;20034;-77
2021/07/03 10:09:06;;;;;;;7.22;3.65;;;;;;;24.73;51.82;94526.50;4913716;29;20103;-77
2021/07/03 10:11:36;;;;;;;3.53;3.22;;;;;;;25.28;51.45;94521.03;4894852;29;20059;-75
2021/07/03 10:14:03;;;;;;;5.05;2.70;;;;;;;24.67;50.58;94521.22;4927562;29;20150;-77
2021/07/03 10:16:28;;;;;;;10.95;3.35;;;;;;;25.04;52.73;94530.72;4927892;29;20520;-76
2021/07/03 10:19:27;;;;;;;2.88;2.67;;;;;;;24.95;51.26;94511.09;4926619;29;20059;-78
2021/07/03 10:21:53;;;;;;;4.25;2.70;;;;;;;24.53;52.35;94508.81;4928131;29;20026;-79
2021/07/03 10:24:20;;;;;;;3.47;3.15;;;;;;;24.84;51.67;94517.50;4893587;29;20036;-79
2021/07/03 10:26:46;;;;;;;3.30;3.03;;;;;;;23.59;53.46;94519.91;4910521;29;20110;-77
2021/07/03 10:29:19;;;;;;;3.63;2.78;;;;;;;23.90;53.18;94512.78;4909830;29;20464;-77
2021/07/03 10:31:46;;;;;;;3.30;3.10;;;;;;;25.20;51.60;94524.28;4894152;29;20598;-78
2021/07/03 10:34:12;;;;;;;5.32;2.90;;;;;;;25.20;51.04;94518.19;4906629;29;20048;-77
2021/07/03 10:36:38;;;;;;;4.32;2.22;;;;;;;24.67;49.87;94512.50;4926182;29;20036;-79
2021/07/03 10:39:03;;;;;;;2.40;2.20;;;;;;;24.82;51.63;94507.16;4927726;29;20039;-75
2021/07/03 10:41:30;;;;;;;3.90;2.60;;;;;;;24.32;51.05;94507.25;4894510;29;20032;-76
2021/07/03 10:44:07;;;;;;;2.78;2.55;;;;;;;23.80;52.18;94510.13;4894969;29;20036;-75
2021/07/03 10:46:41;;;;;;;4.15;2.45;;;;;;;25.05;50.88;94500.47;4894807;29;20385;-76
2021/07/03 10:49:11;;;;;;;3.55;2.65;;;;;;;25.56;50.28;94504.47;4895025;29;20473;-75
2021/07/03 10:51:41;;;;;;;4.20;2.92;;;;;;;24.77;49.90;94488.63;4895695;29;20031;-77
2021/07/03 10:54:20;;;;;;;2.72;2.53;;;;;;;25.20;50.13;94497.75;4926757;29;20401;-75
2021/07/03 10:57:12;;;;;;;4.78;2.95;;;;;;;25.61;49.76;94493.84;4926710;29;20413;-77
2021/07/03 10:59:40;;;;;;;4.43;3.15;;;;;;;25.34;48.48;94498.72;4910143;29;20043;-80
2021/07/03 11:02:08;;;;;;;3.60;3.40;;;;;;;25.65;48.13;94494.84;4926528;29;20054;-77
2021/07/03 11:04:53;;;;;;;3.92;3.72;;;;;;;26.04;48.45;94483.44;4927259;29;20493;-75
2021/07/03 11:07:39;;;;;;;4.82;3.67;;;;;;;25.39;49.13;94463.44;4909929;29;20038;-79
2021/07/03 11:10:25;;;;;;;5.32;4.93;;;;;;;25.54;48.04;94461.50;4926434;29;20103;-75
2021/07/03 11:12:52;;;;;;;3.72;3.53;;;;;;;25.40;48.11;94476.41;4910068;29;20040;-79
2021/07/03 11:15:28;;;;;;;3.42;3.22;;;;;;;24.84;46.89;94464.50;4906244;29;20031;-79
2021/07/03 11:17:57;;;;;;;5.70;4.30;;;;;;;24.83;48.49;94476.16;4910865;29;20039;-79
2021/07/03 11:20:28;;;;;;;3.78;3.58;;;;;;;25.03;48.69;94470.78;4909334;29;20031;-78
2021/07/03 11:22:54;;;;;;;3.38;3.08;;;;;;;24.43;50.80;94472.56;4909399;29;20087;-79
2021/07/03 11:25:30;;;;;;;6.20;4.00;;;;;;;24.89;49.20;94459.19;4907780;29;20509;-78
2021/07/03 11:28:10;;;;;;;4.35;4.05;;;;;;;24.40;50.56;94467.00;4908565;29;20034;-78
2021/07/03 11:30:37;;;;;;;3.17;3.08;;;;;;;24.39;48.30;94460.91;4926949;29;20036;-76
2021/07/03 11:33:02;;;;;;;8.82;4.57;;;;;;;24.64;48.51;94468.00;4925549;29;20035;-77
2021/07/03 11:35:29;;;;;;;7.38;4.28;;;;;;;24.88;48.53;94457.63;4909600;29;20036;-76
2021/07/03 11:37:55;;;;;;;5.00;3.90;;;;;;;25.48;47.30;94451.19;4909646;29;20059;-76
2021/07/03 11:40:23;;;;;;;4.07;3.78;;;;;;;26.18;46.46;94452.53;4927283;29;20594;-77
2021/07/03 11:42:51;;;;;;;6.00;4.45;;;;;;;25.59;47.86;94453.50;4910201;29;20032;-75
2021/07/03 11:45:18;;;;;;;6.05;4.70;;;;;;;25.21;50.27;94456.91;4908848;29;20558;-82
2021/07/03 11:47:44;;;;;;;4.45;4.05;;;;;;;25.25;48.73;94451.84;4894938;29;20024;-77
2021/07/03 11:50:26;;;;;;;5.60;4.30;;;;;;;25.37;47.50;94455.75;4908161;29;20050;-77
2021/07/03 11:52:53;;;;;;;7.07;6.13;;;;;;;25.31;46.86;94446.25;4925285;29;20030;-82
2021/07/03 11:55:40;;;;;;;6.43;5.85;;;;;;;24.58;48.65;94459.28;4892979;29;20082;-78
2021/07/03 11:58:09;;;;;;;6.05;5.45;;;;;;;25.08;48.56;94462.81;4899033;29;20056;-78
2021/07/03 12:00:35;;;;;;;;;;;;;;;25.54;45.57;94464.16;4898670;29;20624;-79
2021/07/03 12:03:01;;;;;;;5.93;4.57;;;;;;;24.71;47.23;94459.75;4911993;29;19914;-78
2021/07/03 12:05:32;;;;;;;5.13;4.72;;;;;;;24.62;47.51;94465.63;4897866;29;20086;-78
2021/07/03 12:08:06;;;;;;;5.53;4.75;;;;;;;25.29;47.93;94466.16;4912870;29;20039;-79
2021/07/03 12:10:32;;;;;;;4.55;4.15;;;;;;;24.70;48.08;94460.81;4913187;29;20505;-80
2021/07/03 12:12:57;;;;;;;5.43;4.65;;;;;;;24.03;49.43;94451.41;4928776;29;20038;-75
2021/07/03 12:15:26;;;;;;;7.68;4.68;;;;;;;24.47;49.17;94465.66;4911778;29;20027;-77
2021/07/03 12:17:52;;;;;;;5.83;5.33;;;;;;;24.94;48.53;94464.47;4913701;29;20024;-77
2021/07/03 12:20:18;;;;;;;7.15;5.30;;;;;;;24.40;50.28;94454.53;4911995;29;20032;-76
2021/07/03 12:22:58;;;;;;;6.35;5.55;;;;;;;24.51;48.16;94463.25;4930743;29;20023;-77
2021/07/03 12:25:25;;;;;;;6.40;4.72;;;;;;;24.14;48.81;94464.38;4911970;29;20070;-75
2021/07/03 12:27:59;;;;;;;9.52;5.32;;;;;;;24.09;49.90;94455.63;4929624;29;20598;-77
2021/07/03 12:30:25;;;;;;;6.22;5.63;;;;;;;25.19;48.48;94448.44;4898362;29;20527;-79
2021/07/03 12:33:07;;;;;;;5.35;4.95;;;;;;;25.67;48.26;94429.06;4896451;29;20055;-80
2021/07/03 12:35:34;;;;;;;8.10;5.10;;;;;;;25.66;47.73;94448.69;4912758;29;20031;-78
2021/07/03 12:37:59;;;;;;;4.53;4.32;;;;;;;25.26;46.21;94446.28;4911701;29;20031;-76
2021/07/03 12:40:27;;;;;;;5.10;4.65;;;;;;;25.60;47.76;94443.69;4912774;29;20042;-79
2021/07/03 12:42:57;;;;;;;4.70;4.30;;;;;;;25.76;44.96;94442.50;4911334;29;20031;-77
2021/07/03 12:45:23;;;;;;;4.68;4.38;;;;;;;25.31;47.05;94453.41;4923028;29;20525;-77
2021/07/03 12:47:49;;;;;;;4.55;4.30;;;;;;;24.73;46.85;94455.75;4920050;29;20024;-75
2021/07/03 12:50:15;;;;;;;4.43;4.13;;;;;;;24.70;47.67;94451.00;4886542;29;20036;-75
2021/07/03 12:52:41;;;;;;;4.45;3.88;;;;;;;25.07;46.95;94447.97;4888699;29;20469;-76
2021/07/03 12:55:09;;;;;;;4.35;4.15;;;;;;;24.69;46.94;94449.44;4892305;29;20059;-78
2021/07/03 12:57:42;;;;;;;5.20;4.80;;;;;;;24.43;48.94;94456.66;4898656;29;20052;-78
2021/07/03 13:00:08;;;;;;;5.60;5.30;;;;;;;24.26;48.54;94452.72;4883271;29;20101;-77
2021/07/03 13:02:35;;;;;;;5.50;5.07;;;;;;;24.44;49.45;94452.16;4912324;29;20043;-77
2021/07/03 13:05:01;;;;;;;5.15;4.78;;;;;;;24.27;47.83;94464.91;4896421;29;20486;-78
2021/07/03 13:07:26;;;;;;;7.07;4.78;;;;;;;24.43;47.78;94456.66;4911307;29;20020;-77
2021/07/03 13:09:52;;;;;;;4.40;4.13;;;;;;;24.34;46.33;94465.44;4911922;29;20039;-76
2021/07/03 13:12:17;;;;;;;5.07;4.78;;;;;;;23.86;46.84;94461.44;4895314;29;20043;-75
2021/07/03 13:14:44;;;;;;;8.20;5.30;;;;;;;24.34;48.89;94442.38;4929000;29;20433;-76
2021/07/03 13:17:09;;;;;;;5.57;5.13;;;;;;;24.64;47.58;94437.00;4911423;29;20086;-81
2021/07/03 13:19:35;;;;;;;5.50;5.05;;;;;;;24.52;47.36;94460.34;4896043;29;20027;-77
2021/07/03 13:22:00;;;;;;;6.18;5.63;;;;;;;24.25;48.67;94456.41;4911775;29;20027;-76
2021/07/03 13:24:26;;;;;;;6.53;5.38;;;;;;;23.90;49.73;94467.81;4910885;29;20031;-79
2021/07/03 13:26:51;;;;;;;6.65;6.07;;;;;;;23.78;50.14;94457.50;4912525;29;20032;-79
2021/07/03 13:29:17;;;;;;;5.50;5.20;;;;;;;23.57;50.69;94475.19;4894654;29;20066;-81
2021/07/03 13:31:43;;;;;;;5.63;5.03;;;;;;;22.94;52.06;94468.41;4929582;29;20031;-76
2021/07/03 13:34:08;;;;;;;6.55;5.53;;;;;;;22.87;52.78;94459.94;4894608;29;20031;-77
2021/07/03 13:36:34;;;;;;;6.82;6.07;;;;;;;22.48;53.28;94454.19;4912089;29;20023;-79
2021/07/03 13:38:59;;;;;;;4.80;4.50;;;;;;;22.44;52.35;94468.16;4911130;29;20413;-75
2021/07/03 13:41:25;;;;;;;5.60;5.10;;;;;;;22.14;53.44;94468.78;4928512;29;20031;-78
2021/07/03 13:43:50;;;;;;;6.35;5.95;;;;;;;22.25;54.68;94469.66;4928109;29;20120;-79
2021/07/03 13:46:16;;;;;;;5.63;5.32;;;;;;;22.40;54.43;94464.44;4927624;29;20039;-76
2021/07/03 13:48:41;;;;;;;6.22;5.68;;;;;;;22.22;53.74;94454.31;4929054;29;20493;-81
2021/07/03 13:51:07;;;;;;;5.47;5.03;;;;;;;22.10;53.70;94465.03;4916658;29;20051;-77
2021/07/03 13:53:32;;;;;;;5.72;5.22;;;;;;;22.21;53.16;94445.59;4928391;29;20031;-78
2021/07/03 13:55:58;;;;;;;5.88;5.55;;;;;;;22.27;53.50;94443.78;4910754;29;20509;-79
2021/07/03 13:58:26;;;;;;;6.13;5.55;;;;;;;22.34;54.23;94453.06;4911046;29;20477;-77
2021/07/03 14:00:51;;;;;;;6.28;5.68;;;;;;;22.81;52.59;94457.53;4895921;29;20474;-76
2021/07/03 14:03:17;;;;;;;6.25;5.75;;;;;;;23.25;51.33;94447.34;4894789;29;20028;-75
2021/07/03 14:05:43;;;;;;;5.65;5.13;;;;;;;23.10;51.34;94450.75;4927874;29;20039;-76
2021/07/03 14:08:09;;;;;;;5.68;5.28;;;;;;;22.88;52.06;94436.97;4926666;29;20024;-77
2021/07/03 14:10:34;;;;;;;6.07;5.68;;;;;;;22.94;53.39;94444.66;4911430;29;20585;-78
2021/07/03 14:13:00;;;;;;;5.60;5.30;;;;;;;22.72;54.63;94440.59;4894430;29;20039;-76
2021/07/03 14:15:25;;;;;;;5.60;5.30;;;;;;;22.60;54.46;94438.16;4894913;29;20632;-77
2021/07/03 14:17:51;;;;;;;4.30;4.00;;;;;;;22.64;53.13;94452.41;4910532;29;20055;-76
2021/07/03 14:20:18;;;;;;;3.75;3.33;;;;;;;22.52;53.56;94457.91;4927021;29;20031;-77
2021/07/03 14:22:44;;;;;;;3.28;3.08;;;;;;;22.42;52.85;94455.22;4928348;29;20035;-79
2021/07/03 14:25:10;;;;;;;4.15;3.17;;;;;;;22.46;51.89;94447.56;4902948;29;20027;-77
2021/07/03 14:27:36;;;;;;;3.20;3.00;;;;;;;22.73;51.88;94460.69;4919302;29;20428;-76
2021/07/03 14:30:01;;;;;;;3.13;2.80;;;;;;;22.73;53.33;94458.84;4919375;29;20104;-78
2021/07/03 14:32:27;;;;;;;3.28;3.08;;;;;;;22.64;53.73;94462.97;4921533;29;20019;-76
2021/07/03 14:34:52;;;;;;;3.90;3.60;;;;;;;23.05;52.52;94456.03;4925418;29;20489;-76
2021/07/03 14:37:18;;;;;;;7.00;4.00;;;;;;;22.97;51.44;94454.69;4909238;29;20504;-76
2021/07/03 14:39:44;;;;;;;4.95;4.57;;;;;;;22.82;52.46;94449.38;4926886;29;20036;-75
2021/07/03 14:42:10;;;;;;;4.85;4.55;;;;;;;23.19;53.06;94445.75;4926769;29;20505;-76
2021/07/03 14:44:35;;;;;;;4.95;4.45;;;;;;;23.27;51.62;94442.59;4926805;29;20038;-75
2021/07/03 14:47:03;;;;;;;4.57;4.28;;;;;;;23.30;53.14;94439.44;4926272;29;20089;-75
2021/07/03 14:49:29;;;;;;;4.53;4.22;;;;;;;23.04;53.92;94438.59;4927420;29;20051;-75
2021/07/03 14:51:54;;;;;;;4.85;4.55;;;;;;;22.92;55.45;94443.31;4926570;29;20074;-76
2021/07/03 14:54:20;;;;;;;4.60;4.30;;;;;;;23.02;54.79;94443.34;4926470;29;20500;-74
2021/07/03 14:56:46;;;;;;;3.28;3.03;;;;;;;22.84;52.61;94436.69;4926715;29;20091;-74
2021/07/03 14:59:11;;;;;;;4.15;3.20;;;;;;;22.73;52.01;94416.59;4926881;29;20042;-80
2021/07/03 15:01:37;;;;;;;3.13;2.85;;;;;;;22.65;52.67;94440.00;4909598;29;20126;-74
2021/07/03 15:04:03;;;;;;;4.70;4.30;;;;;;;22.39;53.91;94436.44;4926236;29;20436;-75
2021/07/03 15:06:28;;;;;;;4.40;4.00;;;;;;;22.59;53.12;94440.00;4927654;29;20507;-75
2021/07/03 15:08:54;;;;;;;3.97;3.70;;;;;;;22.78;53.32;94437.72;4905785;29;20457;-76
2021/07/03 15:11:20;;;;;;;4.45;3.83;;;;;;;22.83;54.16;94434.31;4915777;29;20692;-76
2021/07/03 15:13:46;;;;;;;4.20;4.00;;;;;;;22.68;54.91;94436.88;4919955;29;20107;-77
2021/07/03 15:16:11;;;;;;;4.43;4.03;;;;;;;22.89;54.22;94438.56;4894653;29;20039;-75
2021/07/03 15:18:37;;;;;;;5.95;4.65;;;;;;;22.92;54.44;94436.19;4922547;29;20039;-74
2021/07/03 15:21:02;;;;;;;5.22;4.20;;;;;;;22.92;53.67;94438.03;4920674;29;20051;-75
2021/07/03 15:23:27;;;;;;;4.20;3.95;;;;;;;22.80;53.54;94430.31;4921666;29;20024;-75
2021/07/03 15:25:53;;;;;;;5.07;4.68;;;;;;;22.94;53.84;94433.28;4926273;29;20051;-76
2021/07/03 15:28:18;;;;;;;4.78;4.40;;;;;;;22.65;55.00;94408.31;4895113;29;20079;-75
2021/07/03 15:30:44;;;;;;;5.05;4.05;;;;;;;22.72;54.40;94430.03;4909567;29;20032;-74
2021/07/03 15:33:10;;;;;;;4.32;3.92;;;;;;;22.72;53.73;94425.56;4909361;29;20272;-74
2021/07/03 15:35:35;;;;;;;3.97;3.78;;;;;;;22.83;54.39;94443.00;4911015;29;20060;-75
2021/07/03 15:38:00;;;;;;;4.25;4.05;;;;;;;23.12;54.32;94432.78;4925002;29;20644;-74
2021/07/03 15:40:26;;;;;;;3.70;3.50;;;;;;;23.03;54.56;94418.50;4930903;29;20630;-76
2021/07/03 15:42:52;;;;;;;4.97;4.55;;;;;;;22.86;55.63;94425.88;4930124;29;20035;-75
2021/07/03 15:45:17;;;;;;;3.80;3.60;;;;;;;22.62;55.43;94424.69;4930888;29;20075;-75
2021/07/03 15:47:43;;;;;;;5.82;3.53;;;;;;;22.44;56.31;94423.28;4929503;29;20032;-75
2021/07/03 15:50:10;;;;;;;3.60;3.30;;;;;;;22.80;55.64;94413.66;4929938;29;20039;-74
2021/07/03 15:52:36;;;;;;;4.20;3.90;;;;;;;22.88;56.02;94418.47;4928641;29;20778;-73
2021/07/03 15:55:02;;;;;;;3.67;3.40;;;;;;;22.75;54.47;94424.22;4927055;29;20032;-75
2021/07/03 15:57:27;;;;;;;3.70;3.42;;;;;;;22.74;54.41;94430.56;4912737;29;20054;-74
2021/07/03 15:59:53;;;;;;;3.60;3.40;;;;;;;22.76;53.80;94431.91;4909610;29;20406;-74
2021/07/03 16:02:18;;;;;;;3.58;3.28;;;;;;;22.71;54.64;94431.06;4918476;29;20106;-75
2021/07/03 16:04:44;;;;;;;4.10;3.83;;;;;;;22.84;54.09;94431.41;4911854;29;20039;-74
2021/07/03 16:07:09;;;;;;;3.63;3.42;;;;;;;22.37;54.76;94423.53;4911481;29;20056;-74
2021/07/03 16:09:35;;;;;;;3.90;3.70;;;;;;;22.11;55.28;94397.25;4923790;29;20020;-77
2021/07/03 16:12:00;;;;;;;4.97;3.53;;;;;;;22.35;55.03;94409.78;4897790;29;20023;-77
2021/07/03 16:14:27;;;;;;;4.32;3.97;;;;;;;22.45;54.68;94420.38;4911977;29;20019;-76
2021/07/03 16:16:53;;;;;;;4.05;3.75;;;;;;;22.54;55.23;94434.69;4897971;29;20032;-74
2021/07/03 16:19:19;;;;;;;4.13;3.92;;;;;;;22.48;54.62;94442.81;4930036;29;20512;-75
2021/07/03 16:21:45;;;;;;;4.60;4.30;;;;;;;22.47;54.58;94447.34;4929464;29;20063;-78
2021/07/03 16:24:10;;;;;;;4.57;3.80;;;;;;;22.42;55.08;94447.28;4929871;29;20024;-76
2021/07/03 16:26:35;;;;;;;4.90;4.38;;;;;;;22.38;55.60;94446.22;4928916;29;20032;-75
2021/07/03 16:29:01;;;;;;;4.18;3.78;;;;;;;22.27;54.56;94422.66;4930431;29;20024;-76
2021/07/03 16:31:26;;;;;;;3.53;3.33;;;;;;;22.44;54.69;94457.63;4898648;29;20038;-75
2021/07/03 16:33:52;;;;;;;3.75;3.45;;;;;;;22.46;54.72;94458.13;4929277;29;20522;-76